Vingtetun — JG4912 — position and weather

sailwx.info

Track history (hours):
 
Tides and Currents Weather Stations Pressure Air Temp Water Temp Dewpoint Dewpoint Depression Visibility Wind Speed Wind Dir Waves Ship Positions

Vingtetun

Last reported at 2017-Dec-17 14:53 UTC. Time now 2017-Dec-17 15:38 UTC.
Position N 35°39' E 139°46'.

Length 65 m; draft 2.7 m.

Type: Passenger vessel. MMSI: 7374127.

Date/timePositionNaut miles runAvg speedWind from/ knotsBaromVisibWave heightAir tempDewpointWater temp
2017-Dec-17 14:53N 35°39' E 139°46'0 0.0
2017-Dec-17 14:29N 35°39' E 139°46'0 0.0
2017-Dec-17 13:14N 35°39' E 139°46'0 0.0
2017-Dec-17 12:50N 35°39' E 139°46'0 0.0
2017-Dec-17 12:23N 35°39' E 139°46'0 1.1
2017-Dec-17 12:01N 35°39' E 139°46'4 7.2
2017-Dec-17 11:30N 35°35' E 139°47'1 2.0
2017-Dec-17 11:00N 35°34' E 139°48'4 8.4
2017-Dec-17 10:30N 35°38' E 139°46'1 1.6
2017-Dec-17 09:56N 35°39' E 139°46'0 0.1
2017-Dec-17 09:20N 35°39' E 139°46'2 6.0
2017-Dec-17 09:00N 35°37' E 139°46'3 6.3
2017-Dec-17 08:31N 35°34' E 139°48'0 0.4
2017-Dec-17 08:01N 35°35' E 139°48'4 7.9
2017-Dec-17 07:30N 35°38' E 139°46'1 1.5
2017-Dec-17 07:00N 35°39' E 139°46'0 0.0
2017-Dec-17 04:57N 35°39' E 139°46'2 4.4
2017-Dec-17 04:30N 35°37' E 139°46'4 7.8
2017-Dec-17 04:00N 35°34' E 139°48'2 4.1
2017-Dec-17 03:29N 35°36' E 139°47'4 0.7
2017-Dec-16 22:30N 35°39' E 139°46'0 0.0
2017-Dec-16 22:00N 35°39' E 139°46'0 0.0
2017-Dec-16 17:48N 35°39' E 139°46'0 0.0
2017-Dec-16 16:18N 35°39' E 139°46'0 0.0
2017-Dec-16 15:54N 35°39' E 139°46'0 0.0
2017-Dec-16 14:48N 35°39' E 139°46'0 0.0
2017-Dec-16 14:30N 35°39' E 139°46'0 0.0
2017-Dec-16 14:00N 35°39' E 139°46'0 0.0
2017-Dec-16 13:30N 35°39' E 139°46'0 0.0
2017-Dec-16 13:00N 35°39' E 139°46'0 0.0
2017-Dec-16 12:15N 35°39' E 139°46'0 1.9
2017-Dec-16 12:01N 35°39' E 139°46'4 7.4
2017-Dec-16 11:31N 35°35' E 139°48'1 1.5
2017-Dec-16 11:00N 35°35' E 139°48'4 8.2
2017-Dec-16 10:30N 35°38' E 139°46'1 0.6
2017-Dec-16 09:13N 35°39' E 139°46'1 2.8
2017-Dec-16 08:59N 35°39' E 139°46'4 8.0
2017-Dec-16 08:30N 35°35' E 139°48'1 1.9
2017-Dec-16 08:00N 35°36' E 139°47'3 6.1
2017-Dec-16 07:30N 35°38' E 139°46'1 1.4
2017-Dec-16 06:59N 35°39' E 139°46'0 0.0
2017-Dec-16 05:48N 35°39' E 139°46'0 0.0
2017-Dec-16 05:30N 35°39' E 139°46'0 0.1
2017-Dec-16 04:49N 35°39' E 139°46'1 4.2
2017-Dec-16 04:30N 35°38' E 139°46'4 8.5
2017-Dec-16 04:00N 35°34' E 139°48'2 3.8
2017-Dec-16 03:31N 35°36' E 139°47'4 0.3
2017-Dec-15 15:28N 35°39' E 139°46'0 0.0
2017-Dec-15 13:04N 35°39' E 139°46'0 0.0
2017-Dec-15 12:55N 35°39' E 139°46'0 0.0
2017-Dec-15 12:28N 35°39' E 139°46'0 0.9
2017-Dec-15 12:00N 35°39' E 139°46'4 7.5
2017-Dec-15 11:31N 35°35' E 139°48'1 1.8
2017-Dec-15 11:01N 35°34' E 139°48'4 8.4
2017-Dec-15 10:30N 35°38' E 139°46'1 0.7
2017-Dec-15 09:15N 35°39' E 139°46'0 1.7
2017-Dec-15 09:00N 35°39' E 139°46'4 7.7
2017-Dec-15 08:30N 35°35' E 139°48'1 1.6
2017-Dec-15 08:00N 35°34' E 139°48'4 8.0
2017-Dec-15 07:30N 35°38' E 139°46'1 0.4
2017-Dec-15 04:48N 35°39' E 139°46'2 6.7
2017-Dec-15 04:31N 35°37' E 139°46'4 8.4
2017-Dec-15 04:00N 35°34' E 139°49'6 0.4
2017-Dec-14 14:08N 35°39' E 139°46'0 0.0
2017-Dec-14 12:12N 35°39' E 139°46'1 3.6
2017-Dec-14 12:00N 35°38' E 139°46'4 7.4
2017-Dec-14 11:30N 35°35' E 139°48'1 1.5
2017-Dec-14 11:01N 35°34' E 139°48'4 8.4
2017-Dec-14 10:30N 35°38' E 139°46'1 1.7
2017-Dec-14 09:56N 35°39' E 139°46'0 0.1
2017-Dec-14 09:10N 35°39' E 139°46'1 4.1
2017-Dec-14 09:00N 35°39' E 139°46'4 7.2
2017-Dec-14 08:30N 35°35' E 139°48'1 1.8
2017-Dec-14 08:00N 35°34' E 139°48'4 8.4
2017-Dec-14 07:29N 35°38' E 139°46'1 1.5
2017-Dec-14 06:56N 35°39' E 139°46'0 0.0
2017-Dec-14 04:52N 35°39' E 139°46'2 5.1
2017-Dec-14 04:30N 35°37' E 139°46'4 7.9
2017-Dec-14 04:00N 35°34' E 139°48'2 4.2
2017-Dec-14 03:28N 35°36' E 139°47'4 7.7
2017-Dec-14 03:01N 35°39' E 139°46'0 0.0
2017-Dec-13 12:12N 35°39' E 139°46'1 4.0
2017-Dec-13 12:00N 35°38' E 139°46'3 6.7
2017-Dec-13 11:30N 35°35' E 139°47'1 1.9
2017-Dec-13 11:00N 35°34' E 139°48'4 8.4
2017-Dec-13 10:30N 35°38' E 139°46'1 2.0
2017-Dec-13 10:00N 35°39' E 139°46'0 0.1
2017-Dec-13 09:13N 35°39' E 139°46'1 5.3
2017-Dec-13 09:00N 35°38' E 139°46'4 7.6
2017-Dec-13 08:31N 35°35' E 139°48'0 0.6
2017-Dec-13 08:00N 35°34' E 139°48'4 8.2
2017-Dec-13 07:30N 35°38' E 139°46'1 0.4
2017-Dec-13 04:51N 35°39' E 139°46'2 5.1
2017-Dec-13 04:30N 35°37' E 139°46'4 8.5
2017-Dec-13 04:00N 35°34' E 139°48'2 4.3
2017-Dec-13 03:30N 35°36' E 139°47'4 0.2
2017-Dec-12 12:13N 35°39' E 139°46'1 4.4
2017-Dec-12 11:58N 35°38' E 139°46'4 8.1
2017-Dec-12 11:30N 35°35' E 139°48'0 0.7
2017-Dec-12 11:00N 35°34' E 139°48'4 8.1
2017-Dec-12 10:29N 35°38' E 139°46'1 1.6
2017-Dec-12 09:59N 35°39' E 139°46'0 0.0
2017-Dec-12 09:24N 35°39' E 139°46'1 2.1
2017-Dec-12 09:00N 35°38' E 139°46'4 8.0
2017-Dec-12 08:31N 35°35' E 139°48'0 0.4
2017-Dec-12 08:00N 35°34' E 139°48'4 8.3
2017-Dec-12 07:30N 35°38' E 139°46'1 0.4
2017-Dec-12 04:50N 35°39' E 139°46'2 4.4
2017-Dec-12 04:29N 35°38' E 139°46'3 7.0
2017-Dec-12 04:00N 35°35' E 139°48'1 2.5
2017-Dec-12 03:29N 35°36' E 139°47'4 0.6
2017-Dec-11 21:52N 35°39' E 139°46'0 0.0
2017-Dec-11 18:49N 35°39' E 139°46'0 0.0
2017-Dec-11 12:11N 35°39' E 139°46'1 3.7
2017-Dec-11 12:00N 35°38' E 139°46'4 7.7
2017-Dec-11 11:30N 35°35' E 139°48'0 0.7
2017-Dec-11 11:00N 35°35' E 139°47'3 6.9
2017-Dec-11 10:30N 35°38' E 139°46'1 1.6
2017-Dec-11 09:57N 35°39' E 139°46'0 0.1
2017-Dec-11 09:11N 35°39' E 139°46'1 5.4
2017-Dec-11 09:00N 35°38' E 139°46'4 7.8
2017-Dec-11 08:30N 35°35' E 139°48'0 0.6
2017-Dec-11 07:57N 35°35' E 139°48'4 7.9
2017-Dec-11 07:30N 35°38' E 139°46'1 0.4
2017-Dec-11 04:51N 35°39' E 139°46'2 5.2
2017-Dec-11 04:30N 35°37' E 139°46'4 8.2
2017-Dec-11 04:01N 35°34' E 139°49'2 4.0
2017-Dec-11 03:30N 35°36' E 139°47'4 7.5
2017-Dec-11 03:00N 35°39' E 139°46'0 0.0
2017-Dec-10 21:02N 35°39' E 139°46'0 0.0
2017-Dec-10 20:32N 35°39' E 139°46'0 0.0
2017-Dec-10 20:26N 35°39' E 139°46'0 0.0
2017-Dec-10 19:23N 35°39' E 139°46'0 0.0
2017-Dec-10 16:38N 35°39' E 139°46'0 0.0
2017-Dec-10 16:23N 35°39' E 139°46'0 0.0
2017-Dec-10 12:14N 35°39' E 139°46'1 2.6
2017-Dec-10 12:00N 35°39' E 139°46'4 8.0
2017-Dec-10 11:30N 35°35' E 139°48'0 0.5
2017-Dec-10 10:59N 35°35' E 139°48'4 8.0
2017-Dec-10 10:30N 35°38' E 139°46'1 1.7
2017-Dec-10 09:56N 35°39' E 139°46'0 0.1
2017-Dec-10 09:10N 35°39' E 139°46'1 3.8
2017-Dec-10 09:01N 35°39' E 139°46'4 7.8
2017-Dec-10 08:30N 35°35' E 139°48'0 0.8
2017-Dec-10 08:00N 35°35' E 139°47'4 7.2
2017-Dec-10 07:30N 35°38' E 139°46'1 1.4
2017-Dec-10 06:59N 35°39' E 139°46'0 0.0
2017-Dec-10 04:51N 35°39' E 139°46'2 5.3
2017-Dec-10 04:31N 35°37' E 139°46'4 8.3
2017-Dec-10 04:00N 35°34' E 139°48'2 4.5
2017-Dec-10 03:29N 35°36' E 139°47'4 7.4
2017-Dec-10 03:00N 35°39' E 139°46'0 0.0
2017-Dec-09 22:43N 35°39' E 139°46'0 0.0
2017-Dec-09 22:19N 35°39' E 139°46'0 0.0
2017-Dec-09 21:34N 35°39' E 139°46'0 0.0
2017-Dec-09 21:16N 35°39' E 139°46'0 0.0
2017-Dec-09 20:40N 35°39' E 139°46'0 0.0
2017-Dec-09 20:10N 35°39' E 139°46'0 0.0
2017-Dec-09 19:58N 35°39' E 139°46'0 0.0
2017-Dec-09 19:28N 35°39' E 139°46'0 0.0
2017-Dec-09 18:49N 35°39' E 139°46'0 0.0
2017-Dec-09 18:28N 35°39' E 139°46'0 0.0
2017-Dec-09 17:58N 35°39' E 139°46'0 0.0
2017-Dec-09 17:28N 35°39' E 139°46'0 0.0
2017-Dec-09 16:58N 35°39' E 139°46'0 0.0
2017-Dec-09 16:13N 35°39' E 139°46'0 0.0
2017-Dec-09 15:58N 35°39' E 139°46'0 0.0
2017-Dec-09 15:07N 35°39' E 139°46'0 0.0
2017-Dec-09 14:55N 35°39' E 139°46'0 0.0
2017-Dec-09 12:11N 35°39' E 139°46'1 4.1
2017-Dec-09 12:01N 35°38' E 139°46'4 7.5
2017-Dec-09 11:31N 35°35' E 139°47'0 0.7
2017-Dec-09 11:01N 35°35' E 139°48'4 8.0
2017-Dec-09 10:31N 35°38' E 139°46'1 0.7
2017-Dec-09 09:21N 35°39' E 139°46'1 1.7
2017-Dec-09 09:01N 35°39' E 139°46'4 7.7
2017-Dec-09 08:31N 35°35' E 139°47'0 0.9
2017-Dec-09 08:00N 35°35' E 139°48'4 8.1
2017-Dec-09 07:31N 35°38' E 139°46'1 0.4
2017-Dec-09 04:49N 35°39' E 139°46'1 4.5
2017-Dec-09 04:30N 35°38' E 139°46'4 8.3
2017-Dec-09 04:00N 35°34' E 139°48'2 3.6
2017-Dec-09 03:30N 35°36' E 139°47'4 7.3
2017-Dec-09 03:00N 35°39' E 139°46'0 0.0
2017-Dec-08 21:53N 35°39' E 139°46'0 0.0
2017-Dec-08 21:17N 35°39' E 139°46'0 0.0
2017-Dec-08 20:47N 35°39' E 139°46'0 0.0
2017-Dec-08 20:29N 35°39' E 139°46'0 0.0
2017-Dec-08 19:59N 35°39' E 139°46'0 0.0
2017-Dec-08 19:23N 35°39' E 139°46'0 0.0
2017-Dec-08 18:50N 35°39' E 139°46'0 0.0
2017-Dec-08 18:20N 35°39' E 139°46'0 0.0
2017-Dec-08 17:59N 35°39' E 139°46'0 0.0
2017-Dec-08 17:26N 35°39' E 139°46'0 0.0
2017-Dec-08 16:53N 35°39' E 139°46'0 0.0
2017-Dec-08 14:50N 35°39' E 139°46'0 0.0
2017-Dec-08 14:08N 35°39' E 139°46'0 0.0
2017-Dec-08 13:41N 35°39' E 139°46'0 0.0
2017-Dec-08 13:29N 35°39' E 139°46'0 0.0
2017-Dec-08 12:11N 35°39' E 139°46'1 3.0
2017-Dec-08 12:00N 35°39' E 139°46'4 7.3
2017-Dec-08 11:30N 35°35' E 139°47'1 1.8
2017-Dec-08 11:00N 35°34' E 139°48'4 8.2
2017-Dec-08 10:30N 35°38' E 139°46'1 0.8
2017-Dec-08 09:10N 35°39' E 139°46'0 3.0
2017-Dec-08 09:00N 35°39' E 139°46'4 7.7
2017-Dec-08 08:30N 35°35' E 139°48'0 0.7
2017-Dec-08 08:00N 35°35' E 139°48'4 7.4
2017-Dec-08 07:30N 35°38' E 139°46'1 1.7
2017-Dec-08 06:56N 35°39' E 139°46'0 0.0
2017-Dec-08 06:29N 35°39' E 139°46'0 0.0
2017-Dec-08 05:59N 35°39' E 139°46'0 0.0
2017-Dec-08 05:29N 35°39' E 139°46'0 0.0
2017-Dec-08 04:59N 35°39' E 139°46'2 3.4
2017-Dec-08 04:30N 35°37' E 139°46'4 8.5
2017-Dec-08 04:00N 35°34' E 139°48'2 4.0
2017-Dec-08 03:29N 35°36' E 139°47'4 7.6
2017-Dec-08 03:01N 35°39' E 139°46'0 0.0
2017-Dec-07 21:53N 35°39' E 139°46'0 0.0
2017-Dec-07 21:29N 35°39' E 139°46'0 0.0
2017-Dec-07 20:59N 35°39' E 139°46'0 0.0
2017-Dec-07 20:26N 35°39' E 139°46'0 0.0
2017-Dec-07 19:59N 35°39' E 139°46'0 0.0
2017-Dec-07 19:29N 35°39' E 139°46'0 0.0
2017-Dec-07 18:59N 35°39' E 139°46'0 0.0
2017-Dec-07 18:29N 35°39' E 139°46'0 0.0
2017-Dec-07 17:50N 35°39' E 139°46'0 0.0
2017-Dec-07 17:14N 35°39' E 139°46'0 0.0
2017-Dec-07 16:59N 35°39' E 139°46'0 0.0
2017-Dec-07 15:38N 35°39' E 139°46'0 0.0
2017-Dec-07 15:08N 35°39' E 139°46'  
Track history (hours):
 
Tides and Currents Weather Stations Pressure Air Temp Water Temp Dewpoint Dewpoint Depression Visibility Wind Speed Wind Dir Waves Ship Positions

Vingtetun

Last reported at 2017-Dec-17 14:53 UTC. Time now 2017-Dec-17 15:38 UTC.
Position N 35°39' E 139°46'.

Length 65 m; draft 2.7 m.

Type: Passenger vessel. MMSI: 7374127.

Date/timePositionNaut miles runAvg speedWind from/ knotsBaromVisibWave heightAir tempDewpointWater temp
2017-Dec-17 14:53N 35°39' E 139°46'0 0.0
2017-Dec-17 14:29N 35°39' E 139°46'0 0.0
2017-Dec-17 13:14N 35°39' E 139°46'0 0.0
2017-Dec-17 12:50N 35°39' E 139°46'0 0.0
2017-Dec-17 12:23N 35°39' E 139°46'0 1.1
2017-Dec-17 12:01N 35°39' E 139°46'4 7.2
2017-Dec-17 11:30N 35°35' E 139°47'1 2.0
2017-Dec-17 11:00N 35°34' E 139°48'4 8.4
2017-Dec-17 10:30N 35°38' E 139°46'1 1.6
2017-Dec-17 09:56N 35°39' E 139°46'0 0.1
2017-Dec-17 09:20N 35°39' E 139°46'2 6.0
2017-Dec-17 09:00N 35°37' E 139°46'3 6.3
2017-Dec-17 08:31N 35°34' E 139°48'0 0.4
2017-Dec-17 08:01N 35°35' E 139°48'4 7.9
2017-Dec-17 07:30N 35°38' E 139°46'1 1.5
2017-Dec-17 07:00N 35°39' E 139°46'0 0.0
2017-Dec-17 04:57N 35°39' E 139°46'2 4.4
2017-Dec-17 04:30N 35°37' E 139°46'4 7.8
2017-Dec-17 04:00N 35°34' E 139°48'2 4.1
2017-Dec-17 03:29N 35°36' E 139°47'4 0.7
2017-Dec-16 22:30N 35°39' E 139°46'0 0.0
2017-Dec-16 22:00N 35°39' E 139°46'0 0.0
2017-Dec-16 17:48N 35°39' E 139°46'0 0.0
2017-Dec-16 16:18N 35°39' E 139°46'0 0.0
2017-Dec-16 15:54N 35°39' E 139°46'0 0.0
2017-Dec-16 14:48N 35°39' E 139°46'0 0.0
2017-Dec-16 14:30N 35°39' E 139°46'0 0.0
2017-Dec-16 14:00N 35°39' E 139°46'0 0.0
2017-Dec-16 13:30N 35°39' E 139°46'0 0.0
2017-Dec-16 13:00N 35°39' E 139°46'0 0.0
2017-Dec-16 12:15N 35°39' E 139°46'0 1.9
2017-Dec-16 12:01N 35°39' E 139°46'4 7.4
2017-Dec-16 11:31N 35°35' E 139°48'1 1.5
2017-Dec-16 11:00N 35°35' E 139°48'4 8.2
2017-Dec-16 10:30N 35°38' E 139°46'1 0.6
2017-Dec-16 09:13N 35°39' E 139°46'1 2.8
2017-Dec-16 08:59N 35°39' E 139°46'4 8.0
2017-Dec-16 08:30N 35°35' E 139°48'1 1.9
2017-Dec-16 08:00N 35°36' E 139°47'3 6.1
2017-Dec-16 07:30N 35°38' E 139°46'1 1.4
2017-Dec-16 06:59N 35°39' E 139°46'0 0.0
2017-Dec-16 05:48N 35°39' E 139°46'0 0.0
2017-Dec-16 05:30N 35°39' E 139°46'0 0.1
2017-Dec-16 04:49N 35°39' E 139°46'1 4.2
2017-Dec-16 04:30N 35°38' E 139°46'4 8.5
2017-Dec-16 04:00N 35°34' E 139°48'2 3.8
2017-Dec-16 03:31N 35°36' E 139°47'4 0.3
2017-Dec-15 15:28N 35°39' E 139°46'0 0.0
2017-Dec-15 13:04N 35°39' E 139°46'0 0.0
2017-Dec-15 12:55N 35°39' E 139°46'0 0.0
2017-Dec-15 12:28N 35°39' E 139°46'0 0.9
2017-Dec-15 12:00N 35°39' E 139°46'4 7.5
2017-Dec-15 11:31N 35°35' E 139°48'1 1.8
2017-Dec-15 11:01N 35°34' E 139°48'4 8.4
2017-Dec-15 10:30N 35°38' E 139°46'1 0.7
2017-Dec-15 09:15N 35°39' E 139°46'0 1.7
2017-Dec-15 09:00N 35°39' E 139°46'4 7.7
2017-Dec-15 08:30N 35°35' E 139°48'1 1.6
2017-Dec-15 08:00N 35°34' E 139°48'4 8.0
2017-Dec-15 07:30N 35°38' E 139°46'1 0.4
2017-Dec-15 04:48N 35°39' E 139°46'2 6.7
2017-Dec-15 04:31N 35°37' E 139°46'4 8.4
2017-Dec-15 04:00N 35°34' E 139°49'6 0.4
2017-Dec-14 14:08N 35°39' E 139°46'0 0.0
2017-Dec-14 12:12N 35°39' E 139°46'1 3.6
2017-Dec-14 12:00N 35°38' E 139°46'4 7.4
2017-Dec-14 11:30N 35°35' E 139°48'1 1.5
2017-Dec-14 11:01N 35°34' E 139°48'4 8.4
2017-Dec-14 10:30N 35°38' E 139°46'1 1.7
2017-Dec-14 09:56N 35°39' E 139°46'0 0.1
2017-Dec-14 09:10N 35°39' E 139°46'1 4.1
2017-Dec-14 09:00N 35°39' E 139°46'4 7.2
2017-Dec-14 08:30N 35°35' E 139°48'1 1.8
2017-Dec-14 08:00N 35°34' E 139°48'4 8.4
2017-Dec-14 07:29N 35°38' E 139°46'1 1.5
2017-Dec-14 06:56N 35°39' E 139°46'0 0.0
2017-Dec-14 04:52N 35°39' E 139°46'2 5.1
2017-Dec-14 04:30N 35°37' E 139°46'4 7.9
2017-Dec-14 04:00N 35°34' E 139°48'2 4.2
2017-Dec-14 03:28N 35°36' E 139°47'4 7.7
2017-Dec-14 03:01N 35°39' E 139°46'0 0.0
2017-Dec-13 12:12N 35°39' E 139°46'1 4.0
2017-Dec-13 12:00N 35°38' E 139°46'3 6.7
2017-Dec-13 11:30N 35°35' E 139°47'1 1.9
2017-Dec-13 11:00N 35°34' E 139°48'4 8.4
2017-Dec-13 10:30N 35°38' E 139°46'1 2.0
2017-Dec-13 10:00N 35°39' E 139°46'0 0.1
2017-Dec-13 09:13N 35°39' E 139°46'1 5.3
2017-Dec-13 09:00N 35°38' E 139°46'4 7.6
2017-Dec-13 08:31N 35°35' E 139°48'0 0.6
2017-Dec-13 08:00N 35°34' E 139°48'4 8.2
2017-Dec-13 07:30N 35°38' E 139°46'1 0.4
2017-Dec-13 04:51N 35°39' E 139°46'2 5.1
2017-Dec-13 04:30N 35°37' E 139°46'4 8.5
2017-Dec-13 04:00N 35°34' E 139°48'2 4.3
2017-Dec-13 03:30N 35°36' E 139°47'4 0.2
2017-Dec-12 12:13N 35°39' E 139°46'1 4.4
2017-Dec-12 11:58N 35°38' E 139°46'4 8.1
2017-Dec-12 11:30N 35°35' E 139°48'0 0.7
2017-Dec-12 11:00N 35°34' E 139°48'4 8.1
2017-Dec-12 10:29N 35°38' E 139°46'1 1.6
2017-Dec-12 09:59N 35°39' E 139°46'0 0.0
2017-Dec-12 09:24N 35°39' E 139°46'1 2.1
2017-Dec-12 09:00N 35°38' E 139°46'4 8.0
2017-Dec-12 08:31N 35°35' E 139°48'0 0.4
2017-Dec-12 08:00N 35°34' E 139°48'4 8.3
2017-Dec-12 07:30N 35°38' E 139°46'1 0.4
2017-Dec-12 04:50N 35°39' E 139°46'2 4.4
2017-Dec-12 04:29N 35°38' E 139°46'3 7.0
2017-Dec-12 04:00N 35°35' E 139°48'1 2.5
2017-Dec-12 03:29N 35°36' E 139°47'4 0.6
2017-Dec-11 21:52N 35°39' E 139°46'0 0.0
2017-Dec-11 18:49N 35°39' E 139°46'0 0.0
2017-Dec-11 12:11N 35°39' E 139°46'1 3.7
2017-Dec-11 12:00N 35°38' E 139°46'4 7.7
2017-Dec-11 11:30N 35°35' E 139°48'0 0.7
2017-Dec-11 11:00N 35°35' E 139°47'3 6.9
2017-Dec-11 10:30N 35°38' E 139°46'1 1.6
2017-Dec-11 09:57N 35°39' E 139°46'0 0.1
2017-Dec-11 09:11N 35°39' E 139°46'1 5.4
2017-Dec-11 09:00N 35°38' E 139°46'4 7.8
2017-Dec-11 08:30N 35°35' E 139°48'0 0.6
2017-Dec-11 07:57N 35°35' E 139°48'4 7.9
2017-Dec-11 07:30N 35°38' E 139°46'1 0.4
2017-Dec-11 04:51N 35°39' E 139°46'2 5.2
2017-Dec-11 04:30N 35°37' E 139°46'4 8.2
2017-Dec-11 04:01N 35°34' E 139°49'2 4.0
2017-Dec-11 03:30N 35°36' E 139°47'4 7.5
2017-Dec-11 03:00N 35°39' E 139°46'0 0.0
2017-Dec-10 21:02N 35°39' E 139°46'0 0.0
2017-Dec-10 20:32N 35°39' E 139°46'0 0.0
2017-Dec-10 20:26N 35°39' E 139°46'0 0.0
2017-Dec-10 19:23N 35°39' E 139°46'0 0.0
2017-Dec-10 16:38N 35°39' E 139°46'0 0.0
2017-Dec-10 16:23N 35°39' E 139°46'0 0.0
2017-Dec-10 12:14N 35°39' E 139°46'1 2.6
2017-Dec-10 12:00N 35°39' E 139°46'4 8.0
2017-Dec-10 11:30N 35°35' E 139°48'0 0.5
2017-Dec-10 10:59N 35°35' E 139°48'4 8.0
2017-Dec-10 10:30N 35°38' E 139°46'1 1.7
2017-Dec-10 09:56N 35°39' E 139°46'0 0.1
2017-Dec-10 09:10N 35°39' E 139°46'1 3.8
2017-Dec-10 09:01N 35°39' E 139°46'4 7.8
2017-Dec-10 08:30N 35°35' E 139°48'0 0.8
2017-Dec-10 08:00N 35°35' E 139°47'4 7.2
2017-Dec-10 07:30N 35°38' E 139°46'1 1.4
2017-Dec-10 06:59N 35°39' E 139°46'0 0.0
2017-Dec-10 04:51N 35°39' E 139°46'2 5.3
2017-Dec-10 04:31N 35°37' E 139°46'4 8.3
2017-Dec-10 04:00N 35°34' E 139°48'2 4.5
2017-Dec-10 03:29N 35°36' E 139°47'4 7.4
2017-Dec-10 03:00N 35°39' E 139°46'0 0.0
2017-Dec-09 22:43N 35°39' E 139°46'0 0.0
2017-Dec-09 22:19N 35°39' E 139°46'0 0.0
2017-Dec-09 21:34N 35°39' E 139°46'0 0.0
2017-Dec-09 21:16N 35°39' E 139°46'0 0.0
2017-Dec-09 20:40N 35°39' E 139°46'0 0.0
2017-Dec-09 20:10N 35°39' E 139°46'0 0.0
2017-Dec-09 19:58N 35°39' E 139°46'0 0.0
2017-Dec-09 19:28N 35°39' E 139°46'0 0.0
2017-Dec-09 18:49N 35°39' E 139°46'0 0.0
2017-Dec-09 18:28N 35°39' E 139°46'0 0.0
2017-Dec-09 17:58N 35°39' E 139°46'0 0.0
2017-Dec-09 17:28N 35°39' E 139°46'0 0.0
2017-Dec-09 16:58N 35°39' E 139°46'0 0.0
2017-Dec-09 16:13N 35°39' E 139°46'0 0.0
2017-Dec-09 15:58N 35°39' E 139°46'0 0.0
2017-Dec-09 15:07N 35°39' E 139°46'0 0.0
2017-Dec-09 14:55N 35°39' E 139°46'0 0.0
2017-Dec-09 12:11N 35°39' E 139°46'1 4.1
2017-Dec-09 12:01N 35°38' E 139°46'4 7.5
2017-Dec-09 11:31N 35°35' E 139°47'0 0.7
2017-Dec-09 11:01N 35°35' E 139°48'4 8.0
2017-Dec-09 10:31N 35°38' E 139°46'1 0.7
2017-Dec-09 09:21N 35°39' E 139°46'1 1.7
2017-Dec-09 09:01N 35°39' E 139°46'4 7.7
2017-Dec-09 08:31N 35°35' E 139°47'0 0.9
2017-Dec-09 08:00N 35°35' E 139°48'4 8.1
2017-Dec-09 07:31N 35°38' E 139°46'1 0.4
2017-Dec-09 04:49N 35°39' E 139°46'1 4.5
2017-Dec-09 04:30N 35°38' E 139°46'4 8.3
2017-Dec-09 04:00N 35°34' E 139°48'2 3.6
2017-Dec-09 03:30N 35°36' E 139°47'4 7.3
2017-Dec-09 03:00N 35°39' E 139°46'0 0.0
2017-Dec-08 21:53N 35°39' E 139°46'0 0.0
2017-Dec-08 21:17N 35°39' E 139°46'0 0.0
2017-Dec-08 20:47N 35°39' E 139°46'0 0.0
2017-Dec-08 20:29N 35°39' E 139°46'0 0.0
2017-Dec-08 19:59N 35°39' E 139°46'0 0.0
2017-Dec-08 19:23N 35°39' E 139°46'0 0.0
2017-Dec-08 18:50N 35°39' E 139°46'0 0.0
2017-Dec-08 18:20N 35°39' E 139°46'0 0.0
2017-Dec-08 17:59N 35°39' E 139°46'0 0.0
2017-Dec-08 17:26N 35°39' E 139°46'0 0.0
2017-Dec-08 16:53N 35°39' E 139°46'0 0.0
2017-Dec-08 14:50N 35°39' E 139°46'0 0.0
2017-Dec-08 14:08N 35°39' E 139°46'0 0.0
2017-Dec-08 13:41N 35°39' E 139°46'0 0.0
2017-Dec-08 13:29N 35°39' E 139°46'0 0.0
2017-Dec-08 12:11N 35°39' E 139°46'1 3.0
2017-Dec-08 12:00N 35°39' E 139°46'4 7.3
2017-Dec-08 11:30N 35°35' E 139°47'1 1.8
2017-Dec-08 11:00N 35°34' E 139°48'4 8.2
2017-Dec-08 10:30N 35°38' E 139°46'1 0.8
2017-Dec-08 09:10N 35°39' E 139°46'0 3.0
2017-Dec-08 09:00N 35°39' E 139°46'4 7.7
2017-Dec-08 08:30N 35°35' E 139°48'0 0.7
2017-Dec-08 08:00N 35°35' E 139°48'4 7.4
2017-Dec-08 07:30N 35°38' E 139°46'1 1.7
2017-Dec-08 06:56N 35°39' E 139°46'0 0.0
2017-Dec-08 06:29N 35°39' E 139°46'0 0.0
2017-Dec-08 05:59N 35°39' E 139°46'0 0.0
2017-Dec-08 05:29N 35°39' E 139°46'0 0.0
2017-Dec-08 04:59N 35°39' E 139°46'2 3.4
2017-Dec-08 04:30N 35°37' E 139°46'4 8.5
2017-Dec-08 04:00N 35°34' E 139°48'2 4.0
2017-Dec-08 03:29N 35°36' E 139°47'4 7.6
2017-Dec-08 03:01N 35°39' E 139°46'0 0.0
2017-Dec-07 21:53N 35°39' E 139°46'0 0.0
2017-Dec-07 21:29N 35°39' E 139°46'0 0.0
2017-Dec-07 20:59N 35°39' E 139°46'0 0.0
2017-Dec-07 20:26N 35°39' E 139°46'0 0.0
2017-Dec-07 19:59N 35°39' E 139°46'0 0.0
2017-Dec-07 19:29N 35°39' E 139°46'0 0.0
2017-Dec-07 18:59N 35°39' E 139°46'0 0.0
2017-Dec-07 18:29N 35°39' E 139°46'0 0.0
2017-Dec-07 17:50N 35°39' E 139°46'0 0.0
2017-Dec-07 17:14N 35°39' E 139°46'0 0.0
2017-Dec-07 16:59N 35°39' E 139°46'0 0.0
2017-Dec-07 15:38N 35°39' E 139°46'0 0.0
2017-Dec-07 15:08N 35°39' E 139°46'  

Dump ship's entire track history